| time (UTC) | temp C | wind direction | speed KPH | gust KPH | rain 1hr cm | rain 24hr cm | rain mn cm | humidity % | barometer mb |
| 20260507204537 | 16 | 305 | 11.3 | 20.9 | 0.03 | 0.03 | 0.03 | 46 | 1007.4 |
| 20260507203043 | 17 | 329 | 30.6 | 98.2 | 0.00 | 0.00 | 0.00 | 46 | 1007.8 |
| 20260507201542 | 18 | 342 | 12.9 | 20.9 | 0.00 | 0.00 | 0.00 | 34 | 1007.2 |
| 20260507200046 | 18 | 313 | 11.3 | 17.7 | 0.00 | 0.00 | 0.00 | 34 | 1007.2 |
| 20260507194529 | 19 | 313 | 14.5 | 27.4 | 0.00 | 0.00 | 0.00 | 32 | 1007.2 |
| 20260507193043 | 20 | 355 | 20.9 | 30.6 | 0.00 | 0.00 | 0.00 | 31 | 1007.1 |
| 20260507191534 | 19 | 316 | 19.3 | 29.0 | 0.00 | 0.00 | 0.00 | 32 | 1007.1 |
| 20260507190039 | 19 | 322 | 16.1 | 30.6 | 0.00 | 0.00 | 0.00 | 31 | 1007.2 |
| 20260507184541 | 19 | 325 | 12.9 | 32.2 | 0.00 | 0.00 | 0.00 | 31 | 1007.1 |
| 20260507183046 | 20 | 331 | 24.1 | 38.6 | 0.00 | 0.00 | 0.00 | 29 | 1007.3 |
| 20260507181549 | 21 | 325 | 25.7 | 37.0 | 0.00 | 0.00 | 0.00 | 31 | 1007.5 |
| 20260507180054 | 18 | 333 | 22.5 | 30.6 | 0.00 | 0.00 | 0.00 | 36 | 1007.7 |
| 20260507174602 | 20 | 348 | 20.9 | 33.8 | 0.00 | 0.00 | 0.00 | 34 | 1007.8 |
| 20260507173012 | 19 | 328 | 24.1 | 32.2 | 0.00 | 0.00 | 0.00 | 35 | 1008.0 |
| 20260507171509 | 20 | 317 | 20.9 | 38.6 | 0.00 | 0.00 | 0.00 | 35 | 1008.0 |
| 20260507170012 | 19 | 355 | 24.1 | 38.6 | 0.00 | 0.00 | 0.00 | 36 | 1008.1 |
| 20260507164516 | 18 | 315 | 20.9 | 30.6 | 0.00 | 0.00 | 0.00 | 37 | 1008.1 |
| 20260507163020 | 18 | 269 | 9.7 | 19.3 | 0.00 | 0.00 | 0.00 | 39 | 1008.2 |
| 20260507161609 | 16 | 234 | 6.4 | 12.9 | 0.00 | 0.00 | 0.00 | 42 | 1008.3 |
| 20260507160107 | 15 | 220 | 11.3 | 16.1 | 0.00 | 0.00 | 0.00 | 45 | 1008.5 |
| 20260507154557 | 13 | 222 | 8.0 | 16.1 | 0.00 | 0.00 | 0.00 | 50 | 1008.5 |
| 20260507153008 | 11 | 207 | 9.7 | 14.5 | 0.00 | 0.00 | 0.00 | 52 | 1008.7 |
| 20260507151512 | 11 | 183 | 11.3 | 14.5 | 0.00 | 0.00 | 0.00 | 50 | 1008.9 |
| 20260507150015 | 11 | 180 | 8.0 | 9.7 | 0.00 | 0.00 | 0.00 | 50 | 1008.9 |
| 20260507144522 | 10 | 5 | 1.6 | 9.7 | 0.00 | 0.00 | 0.00 | 51 | 1009.0 |
| 20260507143018 | 9 | 18 | 6.4 | 14.5 | 0.00 | 0.00 | 0.00 | 50 | 1008.8 |
| 20260507141524 | 9 | 36 | 16.1 | 20.9 | 0.00 | 0.00 | 0.00 | 49 | 1009.0 |
| 20260507140031 | 10 | 338 | 14.5 | 19.3 | 0.00 | 0.00 | 0.00 | 51 | 1008.7 |
| 20260507134528 | 9 | 13 | 14.5 | 20.9 | 0.00 | 0.00 | 0.00 | 53 | 1008.7 |
| 20260507133026 | 8 | 290 | 14.5 | 17.7 | 0.00 | 0.00 | 0.00 | 54 | 1008.4 |
| 20260507131529 | 6 | 311 | 11.3 | 14.5 | 0.00 | 0.00 | 0.00 | 54 | 1008.4 |
| 20260507130053 | 6 | 20 | 6.4 | 17.7 | 0.00 | 0.00 | 0.00 | 56 | 1008.5 |
| 20260507124535 | 6 | 300 | 16.1 | 20.9 | 0.00 | 0.00 | 0.00 | 55 | 1008.4 |
| 20260507123043 | 6 | 297 | 14.5 | 19.3 | 0.00 | 0.00 | 0.00 | 54 | 1008.1 |
| 20260507121556 | 6 | 294 | 14.5 | 20.9 | 0.00 | 0.00 | 0.00 | 55 | 1008.0 |
| 20260507120045 | 5 | 311 | 12.9 | 19.3 | 0.00 | 0.00 | 0.00 | 57 | 1007.9 |
| 20260507114554 | 5 | 310 | 14.5 | 17.7 | 0.00 | 0.00 | 0.00 | 57 | 1007.9 |
| 20260507113049 | 5 | 306 | 12.9 | 19.3 | 0.00 | 0.00 | 0.00 | 55 | 1007.7 |
| 20260507111540 | 5 | 283 | 11.3 | 19.3 | 0.00 | 0.00 | 0.00 | 54 | 1007.6 |
| 20260507110044 | 6 | 299 | 12.9 | 16.1 | 0.00 | 0.00 | 0.00 | 53 | 1007.6 |
| 20260507104548 | 6 | 284 | 12.9 | 17.7 | 0.00 | 0.00 | 0.00 | 55 | 1007.6 |
| 20260507103052 | 6 | 241 | 11.3 | 16.1 | 0.00 | 0.00 | 0.00 | 54 | 1007.8 |
| 20260507101558 | 6 | 244 | 11.3 | 24.1 | 0.00 | 0.00 | 0.00 | 56 | 1007.6 |
| 20260507094504 | 5 | 355 | 6.4 | 12.9 | 0.00 | 0.00 | 0.00 | 58 | 1007.2 |
| 20260507093010 | 5 | 15 | 12.9 | 17.7 | 0.00 | 0.00 | 0.00 | 60 | 1007.3 |
| 20260507091512 | 6 | 14 | 14.5 | 17.7 | 0.00 | 0.00 | 0.00 | 58 | 1007.2 |
| 20260507090018 | 6 | 15 | 14.5 | 19.3 | 0.00 | 0.00 | 0.00 | 57 | 1007.0 |
| 20260507084518 | 6 | 19 | 12.9 | 17.7 | 0.00 | 0.00 | 0.00 | 58 | 1006.8 |
| 20260507083018 | 6 | 9 | 9.7 | 17.7 | 0.00 | 0.00 | 0.00 | 56 | 1006.8 |
| 20260507081521 | 6 | 37 | 11.3 | 16.1 | 0.00 | 0.00 | 0.00 | 54 | 1006.8 |
| 20260507080059 | 6 | 34 | 12.9 | 17.7 | 0.00 | 0.00 | 0.00 | 56 | 1006.8 |
| 20260507080002 | 6 | 39 | 12.9 | 16.1 | 0.00 | 0.00 | 0.00 | 56 | 1006.8 |
| 20260507074507 | 6 | 24 | 9.7 | 12.9 | 0.00 | 0.00 | 0.00 | 57 | 1006.7 |
| 20260507073010 | 7 | 35 | 8.0 | 9.7 | 0.00 | 0.00 | 0.00 | 56 | 1006.6 |
| 20260507071513 | 7 | 80 | 4.8 | 8.0 | 0.00 | 0.00 | 0.00 | 56 | 1006.5 |
| 20260507070014 | 8 | 84 | 8.0 | 14.5 | 0.00 | 0.00 | 0.00 | 56 | 1006.5 |
| 20260507064524 | 9 | 42 | 12.9 | 20.9 | 0.00 | 0.00 | 0.00 | 54 | 1006.5 |
| 20260507063022 | 10 | 46 | 17.7 | 30.6 | 0.00 | 0.00 | 0.00 | 54 | 1006.3 |
| 20260507061520 | 11 | 43 | 19.3 | 29.0 | 0.00 | 0.00 | 0.00 | 48 | 1006.7 |
| 20260507060022 | 12 | 82 | 9.7 | 22.5 | 0.00 | 0.00 | 0.00 | 43 | 1006.7 |
| 20260507054525 | 12 | 92 | 20.9 | 25.7 | 0.00 | 0.00 | 0.00 | 34 | 1006.0 |
| 20260507053022 | 12 | 82 | 17.7 | 22.5 | 0.00 | 0.00 | 0.00 | 35 | 1006.0 |
| 20260507051528 | 11 | 78 | 8.0 | 14.5 | 0.00 | 0.00 | 0.00 | 35 | 1006.1 |
| 20260507050039 | 11 | 81 | 12.9 | 20.9 | 0.00 | 0.00 | 0.00 | 35 | 1005.9 |
| 20260507044540 | 11 | 73 | 11.3 | 14.5 | 0.00 | 0.00 | 0.00 | 35 | 1006.0 |
| 20260507043041 | 11 | 69 | 9.7 | 14.5 | 0.00 | 0.00 | 0.00 | 35 | 1006.0 |
| 20260507041546 | 12 | 67 | 1.6 | 9.7 | 0.00 | 0.00 | 0.00 | 32 | 1006.2 |
| 20260507040046 | 12 | 107 | 9.7 | 12.9 | 0.00 | 0.00 | 0.00 | 33 | 1006.4 |
| 20260507034548 | 11 | 306 | 1.6 | 4.8 | 0.00 | 0.00 | 0.00 | 32 | 1006.7 |
| 20260507033052 | 11 | 94 | 1.6 | 9.7 | 0.00 | 0.00 | 0.00 | 32 | 1006.2 |
| 20260507031538 | 12 | 70 | 8.0 | 12.9 | 0.00 | 0.00 | 0.00 | 33 | 1005.8 |
| 20260507030046 | 13 | 86 | 12.9 | 16.1 | 0.00 | 0.00 | 0.00 | 31 | 1005.7 |
| 20260507024530 | 13 | 86 | 14.5 | 16.1 | 0.00 | 0.00 | 0.00 | 29 | 1005.6 |
| 20260507023030 | 14 | 92 | 6.4 | 16.1 | 0.00 | 0.00 | 0.00 | 29 | 1005.7 |
| 20260507021533 | 15 | 107 | 9.7 | 12.9 | 0.00 | 0.00 | 0.00 | 29 | 1005.5 |
| 20260507020045 | 16 | 100 | 3.2 | 11.3 | 0.00 | 0.00 | 0.00 | 27 | 1005.7 |
| 20260507014553 | 17 | 97 | 9.7 | 12.9 | 0.00 | 0.00 | 0.00 | 25 | 1005.7 |
| 20260507013054 | 18 | 84 | 11.3 | 14.5 | 0.00 | 0.00 | 0.00 | 23 | 1005.9 |
| 20260507011546 | 19 | 65 | 6.4 | 14.5 | 0.00 | 0.00 | 0.00 | 23 | 1006.1 |
| 20260507010050 | 21 | 60 | 4.8 | 17.7 | 0.00 | 0.00 | 0.00 | 22 | 1006.1 |
| 20260507004557 | 22 | 35 | 11.3 | 20.9 | 0.00 | 0.00 | 0.00 | 21 | 1006.2 |
| 20260507003005 | 22 | 280 | 3.2 | 6.4 | 0.00 | 0.00 | 0.00 | 20 | 1006.3 |
| 20260507001510 | 21 | 284 | 3.2 | 12.9 | 0.00 | 0.00 | 0.00 | 21 | 1006.4 |
| 20260507000014 | 20 | 232 | 8.0 | 24.1 | 0.00 | 0.00 | 0.00 | 21 | 1006.4 |
| 20260506234516 | 20 | 308 | 9.7 | 20.9 | 0.00 | 0.00 | 0.00 | 21 | 1006.5 |
| 20260506233016 | 21 | 236 | 11.3 | 20.9 | 0.00 | 0.00 | 0.00 | 20 | 1006.7 |
| 20260506231530 | 21 | 321 | 12.9 | 19.3 | 0.00 | 0.00 | 0.00 | 20 | 1007.1 |
| 20260506230004 | 22 | 277 | 11.3 | 29.0 | 0.00 | 0.00 | 0.00 | 19 | 1007.2 |
| 20260506224508 | 22 | 350 | 14.5 | 20.9 | 0.00 | 0.00 | 0.00 | 20 | 1007.6 |
| 20260506223009 | 21 | 326 | 9.7 | 24.1 | 0.00 | 0.00 | 0.00 | 20 | 1007.9 |
| 20260506221511 | 21 | 271 | 9.7 | 20.9 | 0.00 | 0.00 | 0.00 | 19 | 1008.3 |
| 20260506220012 | 20 | 302 | 14.5 | 32.2 | 0.00 | 0.00 | 0.00 | 19 | 1008.7 |
| 20260506214514 | 20 | 289 | 9.7 | 27.4 | 0.00 | 0.00 | 0.00 | 19 | 1008.8 |
| 20260506213016 | 20 | 40 | 1.6 | 25.7 | 0.00 | 0.00 | 0.00 | 21 | 1009.1 |
| 20260506211517 | 20 | 331 | 17.7 | 30.6 | 0.00 | 0.00 | 0.00 | 20 | 1009.5 |
| 20260506210025 | 19 | 300 | 6.4 | 25.7 | 0.00 | 0.00 | 0.00 | 20 | 1009.7 |